Time;durP1;ratioP1;P1;durP2;ratioP2;P2;SDS_P1;SDS_P2;PMS_P1;PMS_P2;Temp;Humidity;BMP_temperature;BMP_pressure;BME280_temperature;BME280_humidity;BME280_pressure;Samples;Min_cycle;Max_cycle;Signal;HPM_P1;HPM_P2
2021/01/04 00:00:35;;;;;;;33.70;17.77;;;;;;;;;;4990843;28;20585;-86
2021/01/04 00:03:42;;;;;;;35.27;17.27;;;;;;;;;;4995583;28;20625;-85
2021/01/04 00:07:05;;;;;;;27.27;15.60;;;;;;;;;;4984648;28;20542;-85
2021/01/04 00:10:24;;;;;;;32.53;17.03;;;;;;;;;;4973160;28;20590;-85
2021/01/04 00:13:36;;;;;;;30.87;17.23;;;;;;;;;;4964717;28;20923;-85
2021/01/04 00:17:08;;;;;;;31.27;16.67;;;;;;;;;;4976518;28;20539;-85
2021/01/04 00:20:24;;;;;;;29.53;16.33;;;;;;;;;;4985915;28;20589;-85
2021/01/04 00:23:56;;;;;;;29.97;16.40;;;;;;;;;;5014691;28;20577;-85
2021/01/04 00:27:12;;;;;;;30.90;16.67;;;;;;;;;;5003968;28;20536;-86
2021/01/04 00:30:25;;;;;;;28.40;16.37;;;;;;;;;;4981661;28;20582;-86
2021/01/04 00:33:38;;;;;;;31.27;17.40;;;;;;;;;;4995274;28;20918;-85
2021/01/04 00:37:31;;;;;;;34.13;18.03;;;;;;;;;;4984396;28;20538;-85
2021/01/04 00:41:12;;;;;;;32.43;16.27;;;;;;;;;;4985193;28;20588;-85
2021/01/04 00:44:37;;;;;;;32.37;18.07;;;;;;;;;;4955967;28;20635;-86
2021/01/04 00:47:59;;;;;;;33.43;16.97;;;;;;;;;;4972926;28;21132;-85
2021/01/04 00:51:21;;;;;;;35.27;18.07;;;;;;;;;;4989067;28;20597;-85
2021/01/04 00:54:36;;;;;;;32.93;16.77;;;;;;;;;;4992242;28;20616;-85
2021/01/04 00:57:59;;;;;;;32.47;17.17;;;;;;;;;;5003060;28;21188;-85
2021/01/04 01:01:12;;;;;;;34.13;16.80;;;;;;;;;;4975248;28;20590;-85
2021/01/04 01:04:33;;;;;;;34.50;16.90;;;;;;;;;;4974991;28;20650;-86
2021/01/04 01:07:58;;;;;;;32.33;17.43;;;;;;;;;;4953594;28;20547;-85
2021/01/04 01:11:14;;;;;;;29.70;16.50;;;;;;;;;;4975329;28;20535;-85
2021/01/04 01:14:35;;;;;;;35.63;17.83;;;;;;;;;;4975051;28;20618;-85
2021/01/04 01:18:07;;;;;;;36.73;17.93;;;;;;;;;;4995845;28;20550;-85
2021/01/04 01:21:12;;;;;;;32.50;16.73;;;;;;;;;;5001605;28;20581;-86
2021/01/04 01:24:16;;;;;;;35.20;18.33;;;;;;;;;;4991713;28;21038;-86
2021/01/04 01:27:45;;;;;;;35.50;17.30;;;;;;;;;;5002993;28;20596;-85
2021/01/04 01:31:20;;;;;;;34.80;17.50;;;;;;;;;;4964276;28;20542;-86
2021/01/04 01:34:50;;;;;;;34.03;17.27;;;;;;;;;;4982112;28;20642;-85
2021/01/04 01:38:16;;;;;;;34.37;17.27;;;;;;;;;;4985853;28;20595;-85
2021/01/04 01:41:45;;;;;;;29.93;16.97;;;;;;;;;;4983046;28;20554;-85
2021/01/04 01:45:22;;;;;;;32.30;16.93;;;;;;;;;;4971515;28;20634;-86
2021/01/04 01:48:51;;;;;;;31.03;16.63;;;;;;;;;;4977381;28;20588;-86
2021/01/04 01:52:21;;;;;;;33.47;16.40;;;;;;;;;;4991443;28;20592;-85
2021/01/04 01:56:01;;;;;;;32.70;15.83;;;;;;;;;;4994120;28;20612;-85
2021/01/04 01:59:18;;;;;;;34.57;16.97;;;;;;;;;;4993369;28;20625;-85
2021/01/04 02:02:31;;;;;;;33.70;17.40;;;;;;;;;;4973566;28;21216;-86
2021/01/04 02:06:03;;;;;;;32.97;16.50;;;;;;;;;;4992532;28;20656;-86
2021/01/04 02:09:13;;;;;;;34.33;17.60;;;;;;;;;;4980149;28;20597;-85
2021/01/04 02:12:36;;;;;;;29.70;15.70;;;;;;;;;;5013729;28;20526;-85
2021/01/04 02:15:54;;;;;;;32.70;17.43;;;;;;;;;;5001995;28;21076;-85
2021/01/04 02:19:11;;;;;;;30.17;16.20;;;;;;;;;;4981668;28;20601;-85
2021/01/04 02:22:41;;;;;;;31.07;16.50;;;;;;;;;;4971548;28;21162;-85
2021/01/04 02:25:47;;;;;;;34.33;16.17;;;;;;;;;;4972400;28;20581;-85
2021/01/04 02:29:19;;;;;;;31.33;16.17;;;;;;;;;;4979475;28;20624;-85
2021/01/04 02:32:23;;;;;;;33.13;16.50;;;;;;;;;;4971069;28;20550;-85
2021/01/04 02:35:27;;;;;;;31.57;17.10;;;;;;;;;;4974754;28;20630;-85
2021/01/04 02:38:39;;;;;;;34.33;17.17;;;;;;;;;;4992366;28;20932;-85
2021/01/04 02:42:11;;;;;;;31.70;16.17;;;;;;;;;;5016460;28;20584;-86
2021/01/04 02:45:25;;;;;;;34.57;17.07;;;;;;;;;;5005614;28;20623;-85
2021/01/04 02:48:45;;;;;;;31.17;16.27;;;;;;;;;;4975545;28;20614;-85
2021/01/04 02:51:55;;;;;;;37.07;18.50;;;;;;;;;;4975378;28;20554;-85
2021/01/04 02:55:08;;;;;;;32.37;16.80;;;;;;;;;;4986173;28;20648;-85
2021/01/04 02:58:33;;;;;;;30.87;16.27;;;;;;;;;;4976409;28;20577;-85
2021/01/04 03:01:43;;;;;;;32.13;16.97;;;;;;;;;;5011525;28;20960;-85
2021/01/04 03:04:48;;;;;;;32.20;17.07;;;;;;;;;;5016034;28;21010;-85
2021/01/04 03:07:56;;;;;;;34.10;17.03;;;;;;;;;;5005139;28;20603;-85
2021/01/04 03:11:00;;;;;;;33.77;17.27;;;;;;;;;;4994049;28;21002;-85
2021/01/04 03:14:13;;;;;;;30.40;16.87;;;;;;;;;;4979168;28;21027;-85
2021/01/04 03:17:30;;;;;;;32.47;16.67;;;;;;;;;;4973012;28;20626;-85
2021/01/04 03:20:34;;;;;;;32.53;16.43;;;;;;;;;;4955392;28;21118;-85
2021/01/04 03:23:39;;;;;;;33.73;17.33;;;;;;;;;;4965342;28;20669;-85
2021/01/04 03:26:50;;;;;;;32.40;16.43;;;;;;;;;;4985631;28;20889;-85
2021/01/04 03:29:53;;;;;;;31.30;16.27;;;;;;;;;;5000572;28;20601;-85
2021/01/04 03:32:58;;;;;;;31.67;16.83;;;;;;;;;;4981915;28;20595;-85
2021/01/04 03:36:02;;;;;;;36.50;17.93;;;;;;;;;;5015535;28;20627;-85
2021/01/04 03:39:06;;;;;;;35.27;18.10;;;;;;;;;;4993561;28;20608;-85
2021/01/04 03:42:11;;;;;;;33.17;17.07;;;;;;;;;;4984403;28;20983;-85
2021/01/04 03:45:16;;;;;;;31.70;16.37;;;;;;;;;;4996610;28;20632;-85
2021/01/04 03:48:20;;;;;;;30.70;17.27;;;;;;;;;;4995947;28;20618;-85
2021/01/04 03:51:24;;;;;;;34.23;16.27;;;;;;;;;;4981835;28;20596;-85
2021/01/04 03:54:29;;;;;;;34.87;17.60;;;;;;;;;;5004100;28;20628;-85
2021/01/04 03:57:33;;;;;;;36.13;17.37;;;;;;;;;;5004604;28;20544;-85
2021/01/04 04:00:37;;;;;;;34.70;17.37;;;;;;;;;;4971880;28;20925;-85
2021/01/04 04:03:42;;;;;;;33.80;16.50;;;;;;;;;;5004160;28;20660;-85
2021/01/04 04:06:46;;;;;;;34.17;17.40;;;;;;;;;;5015471;28;20549;-86
2021/01/04 04:09:50;;;;;;;35.93;18.60;;;;;;;;;;4990790;28;20588;-85
2021/01/04 04:12:55;;;;;;;38.27;17.73;;;;;;;;;;5004231;28;20540;-85
2021/01/04 04:16:00;;;;;;;32.43;17.40;;;;;;;;;;5004131;28;20537;-85
2021/01/04 04:19:05;;;;;;;34.40;17.60;;;;;;;;;;5003949;28;20557;-85
2021/01/04 04:22:10;;;;;;;30.20;17.57;;;;;;;;;;4954376;28;20957;-85
2021/01/04 04:25:16;;;;;;;33.73;17.93;;;;;;;;;;4971336;28;20640;-85
2021/01/04 04:28:20;;;;;;;32.87;17.47;;;;;;;;;;4973224;28;20550;-85
2021/01/04 04:31:25;;;;;;;29.70;16.67;;;;;;;;;;4987746;28;20592;-85
2021/01/04 04:34:29;;;;;;;32.53;16.90;;;;;;;;;;5002054;28;20620;-85
2021/01/04 04:37:33;;;;;;;37.40;17.27;;;;;;;;;;4984018;28;20596;-85
2021/01/04 04:40:38;;;;;;;30.10;16.77;;;;;;;;;;4992226;28;20588;-85
2021/01/04 04:43:46;;;;;;;32.67;16.80;;;;;;;;;;4992241;28;20655;-85
2021/01/04 04:47:17;;;;;;;29.40;16.83;;;;;;;;;;4985764;28;20628;-85
2021/01/04 04:50:46;;;;;;;35.13;16.83;;;;;;;;;;4978657;28;20592;-85
2021/01/04 04:54:25;;;;;;;31.17;17.33;;;;;;;;;;4981302;28;20645;-85
2021/01/04 04:58:04;;;;;;;31.63;16.47;;;;;;;;;;4972359;28;21164;-85
2021/01/04 05:01:12;;;;;;;33.20;17.17;;;;;;;;;;4984144;28;20585;-85
2021/01/04 05:04:53;;;;;;;31.00;16.83;;;;;;;;;;5036457;23;20697;-84
2021/01/04 05:08:18;;;;;;;30.13;17.87;;;;;;;;;;4983899;28;21088;-84
2021/01/04 05:11:30;;;;;;;31.83;17.53;;;;;;;;;;4972903;28;21052;-84
2021/01/04 05:14:40;;;;;;;34.37;17.50;;;;;;;;;;4984374;28;20727;-84
2021/01/04 05:18:03;;;;;;;32.80;18.10;;;;;;;;;;4980967;28;20545;-84
2021/01/04 05:21:37;;;;;;;31.37;17.40;;;;;;;;;;4968148;28;20543;-84
2021/01/04 05:25:15;;;;;;;33.90;17.73;;;;;;;;;;5002478;28;20660;-84
2021/01/04 05:28:31;;;;;;;36.37;18.67;;;;;;;;;;4953637;28;20551;-84
2021/01/04 05:32:14;;;;;;;33.00;17.83;;;;;;;;;;4964187;28;20551;-84
2021/01/04 05:35:18;;;;;;;35.27;18.13;;;;;;;;;;4938995;28;21013;-84
2021/01/04 05:38:32;;;;;;;31.83;17.93;;;;;;;;;;4980069;28;20619;-85
2021/01/04 05:42:09;;;;;;;32.10;17.37;;;;;;;;;;4966168;28;20600;-85
2021/01/04 05:45:27;;;;;;;33.00;17.60;;;;;;;;;;4975041;28;20641;-84
2021/01/04 05:48:40;;;;;;;34.40;17.63;;;;;;;;;;5003049;28;20549;-84
2021/01/04 05:51:47;;;;;;;31.93;17.70;;;;;;;;;;4952405;28;20590;-84
2021/01/04 05:54:52;;;;;;;29.50;16.67;;;;;;;;;;4973181;28;20644;-83
2021/01/04 05:57:57;;;;;;;31.60;16.70;;;;;;;;;;4980173;28;20553;-84
2021/01/04 06:01:10;;;;;;;33.60;17.77;;;;;;;;;;4991273;28;20909;-83
2021/01/04 06:04:26;;;;;;;32.50;17.03;;;;;;;;;;4989315;28;20996;-84
2021/01/04 06:07:34;;;;;;;31.47;16.73;;;;;;;;;;4961398;28;20546;-84
2021/01/04 06:10:38;;;;;;;32.83;16.70;;;;;;;;;;4971778;28;20542;-84
2021/01/04 06:13:45;;;;;;;27.00;14.70;;;;;;;;;;4970939;28;20601;-84
2021/01/04 06:16:57;;;;;;;30.23;16.00;;;;;;;;;;4963517;28;20538;-84
2021/01/04 06:20:17;;;;;;;26.50;14.97;;;;;;;;;;4952528;28;20535;-84
2021/01/04 06:23:28;;;;;;;28.37;15.70;;;;;;;;;;4990533;28;20625;-86
2021/01/04 06:26:34;;;;;;;27.33;16.17;;;;;;;;;;4942018;28;20547;-84
2021/01/04 06:29:41;;;;;;;27.23;15.87;;;;;;;;;;5001796;28;20584;-84
2021/01/04 06:32:48;;;;;;;28.07;16.70;;;;;;;;;;5001076;28;20600;-84
2021/01/04 06:36:07;;;;;;;31.77;17.17;;;;;;;;;;4982543;28;20609;-84
2021/01/04 06:39:18;;;;;;;32.57;16.30;;;;;;;;;;5001304;28;20589;-85
2021/01/04 06:42:23;;;;;;;32.57;16.87;;;;;;;;;;4972188;28;20961;-85
2021/01/04 06:45:46;;;;;;;31.70;17.53;;;;;;;;;;4993465;28;20650;-85
2021/01/04 06:49:07;;;;;;;31.67;16.10;;;;;;;;;;4971433;28;20571;-85
2021/01/04 06:52:37;;;;;;;31.00;16.70;;;;;;;;;;4982415;28;20909;-86
2021/01/04 06:56:05;;;;;;;35.17;18.53;;;;;;;;;;4971699;28;21184;-85
2021/01/04 06:59:15;;;;;;;32.63;17.80;;;;;;;;;;4971594;28;20540;-85
2021/01/04 07:02:50;;;;;;;34.93;18.07;;;;;;;;;;4971765;28;20551;-86
2021/01/04 07:06:02;;;;;;;29.73;16.87;;;;;;;;;;4983426;28;21021;-84
2021/01/04 07:09:29;;;;;;;29.90;16.40;;;;;;;;;;4979364;28;20553;-84
2021/01/04 07:12:59;;;;;;;32.83;17.27;;;;;;;;;;5000378;28;20577;-86
2021/01/04 07:16:10;;;;;;;32.40;17.50;;;;;;;;;;5001601;28;20621;-86
2021/01/04 07:19:27;;;;;;;31.03;17.13;;;;;;;;;;4941216;28;20555;-86
2021/01/04 07:22:37;;;;;;;33.27;17.57;;;;;;;;;;4952292;28;20543;-86
2021/01/04 07:25:53;;;;;;;32.40;17.40;;;;;;;;;;5011045;28;20713;-84
2021/01/04 07:29:19;;;;;;;32.43;17.70;;;;;;;;;;4963598;28;20621;-84
2021/01/04 07:32:47;;;;;;;31.90;17.03;;;;;;;;;;4963296;28;20582;-85
2021/01/04 07:36:02;;;;;;;34.03;19.27;;;;;;;;;;4985716;28;20600;-85
2021/01/04 07:39:45;;;;;;;38.33;19.53;;;;;;;;;;4956802;28;20625;-86
2021/01/04 07:42:59;;;;;;;32.93;18.43;;;;;;;;;;4955457;28;20531;-85
2021/01/04 07:46:28;;;;;;;35.50;18.10;;;;;;;;;;4982172;28;20648;-85
2021/01/04 07:50:13;;;;;;;35.07;18.97;;;;;;;;;;4982745;28;20557;-85
2021/01/04 07:53:47;;;;;;;35.30;18.03;;;;;;;;;;4925356;28;20562;-85
2021/01/04 07:57:10;;;;;;;33.57;17.90;;;;;;;;;;4985311;28;20589;-84
2021/01/04 08:00:40;;;;;;;32.30;17.27;;;;;;;;;;4985383;28;20878;-84
2021/01/04 08:04:03;;;;;;;32.57;16.70;;;;;;;;;;4997067;28;21024;-85
2021/01/04 08:07:35;;;;;;;32.37;17.90;;;;;;;;;;4966399;28;20601;-85
2021/01/04 08:11:04;;;;;;;34.83;18.33;;;;;;;;;;4965508;28;20542;-88
2021/01/04 08:14:45;;;;;;;31.10;17.50;;;;;;;;;;4965590;28;20608;-87
2021/01/04 08:18:11;;;;;;;31.50;17.37;;;;;;;;;;4966204;28;20585;-86
2021/01/04 08:21:37;;;;;;;38.73;19.47;;;;;;;;;;4994105;28;20589;-86
2021/01/04 08:24:48;;;;;;;32.63;18.80;;;;;;;;;;5012531;28;21004;-87
2021/01/04 08:28:37;;;;;;;35.60;18.63;;;;;;;;;;4992460;28;20553;-85
2021/01/04 08:31:49;;;;;;;34.20;17.83;;;;;;;;;;4910017;28;20985;-85
2021/01/04 08:34:53;;;;;;;43.23;19.97;;;;;;;;;;4971577;28;20645;-83
2021/01/04 08:38:00;;;;;;;31.50;17.73;;;;;;;;;;4992359;28;20587;-83
2021/01/04 08:41:23;;;;;;;39.97;20.07;;;;;;;;;;4964724;28;20597;-84
2021/01/04 08:44:27;;;;;;;46.93;23.13;;;;;;;;;;4982650;28;21044;-84
2021/01/04 08:47:40;;;;;;;41.60;21.73;;;;;;;;;;4984042;28;20553;-84
2021/01/04 08:50:58;;;;;;;31.97;18.57;;;;;;;;;;4984281;28;20615;-84
2021/01/04 08:54:24;;;;;;;30.90;17.83;;;;;;;;;;4970623;28;20648;-84
2021/01/04 08:57:42;;;;;;;32.70;18.67;;;;;;;;;;4972783;28;20589;-84
2021/01/04 09:01:01;;;;;;;32.97;17.80;;;;;;;;;;4984026;28;20542;-84
2021/01/04 09:04:09;;;;;;;35.23;18.27;;;;;;;;;;4956039;28;20646;-84
2021/01/04 09:07:18;;;;;;;36.73;17.30;;;;;;;;;;4977169;28;20597;-84
2021/01/04 09:10:45;;;;;;;35.10;17.83;;;;;;;;;;4961405;28;20606;-84
2021/01/04 09:13:50;;;;;;;30.97;17.03;;;;;;;;;;4979095;28;20585;-84
2021/01/04 09:16:55;;;;;;;33.43;17.10;;;;;;;;;;4979640;28;20964;-84
2021/01/04 09:20:06;;;;;;;34.93;18.00;;;;;;;;;;4974832;28;20590;-84
2021/01/04 09:23:29;;;;;;;33.50;17.43;;;;;;;;;;4990655;28;20589;-85
2021/01/04 09:26:37;;;;;;;31.00;17.13;;;;;;;;;;4968107;28;20566;-84
2021/01/04 09:29:47;;;;;;;31.00;17.83;;;;;;;;;;4983902;28;21223;-84
2021/01/04 09:33:07;;;;;;;31.50;16.63;;;;;;;;;;4980838;28;20561;-85
2021/01/04 09:36:13;;;;;;;33.43;17.60;;;;;;;;;;4979971;28;21189;-84
2021/01/04 09:39:26;;;;;;;32.87;17.60;;;;;;;;;;4970441;28;21155;-84
2021/01/04 09:42:30;;;;;;;34.47;18.83;;;;;;;;;;4980353;28;20545;-84
2021/01/04 09:45:34;;;;;;;33.90;17.43;;;;;;;;;;4974076;28;20659;-84
2021/01/04 09:48:48;;;;;;;35.47;18.33;;;;;;;;;;4965237;28;20635;-84
2021/01/04 09:52:04;;;;;;;34.87;18.77;;;;;;;;;;4995240;28;20550;-84
2021/01/04 09:55:11;;;;;;;31.40;17.80;;;;;;;;;;4967004;28;20645;-84
2021/01/04 09:58:20;;;;;;;31.80;17.50;;;;;;;;;;4960801;28;20550;-84
2021/01/04 10:01:26;;;;;;;30.87;16.53;;;;;;;;;;4989381;28;21148;-85
2021/01/04 10:04:33;;;;;;;33.57;16.83;;;;;;;;;;4987758;28;20652;-84
2021/01/04 10:07:38;;;;;;;36.50;18.27;;;;;;;;;;4991377;28;20888;-84
2021/01/04 10:10:58;;;;;;;37.90;19.07;;;;;;;;;;4964578;28;20597;-84
2021/01/04 10:14:08;;;;;;;32.27;18.37;;;;;;;;;;4961761;28;20656;-84
2021/01/04 10:17:12;;;;;;;37.87;18.30;;;;;;;;;;4979939;28;20544;-84
2021/01/04 10:20:36;;;;;;;39.63;21.03;;;;;;;;;;4952228;28;20539;-84
2021/01/04 10:23:48;;;;;;;37.33;19.60;;;;;;;;;;4952106;28;20550;-84
2021/01/04 10:26:53;;;;;;;34.30;18.50;;;;;;;;;;4952191;28;21173;-84
2021/01/04 10:29:58;;;;;;;33.00;17.53;;;;;;;;;;4952318;28;20547;-84
2021/01/04 10:33:36;;;;;;;30.93;17.30;;;;;;;;;;4941145;28;20563;-85
2021/01/04 10:36:56;;;;;;;34.57;18.90;;;;;;;;;;4929927;28;20978;-84
2021/01/04 10:40:04;;;;;;;35.30;17.30;;;;;;;;;;4973607;28;20590;-84
2021/01/04 10:43:09;;;;;;;33.23;17.43;;;;;;;;;;4990207;28;20592;-84
2021/01/04 10:46:31;;;;;;;36.90;18.67;;;;;;;;;;4978756;28;21261;-84
2021/01/04 10:49:36;;;;;;;31.17;17.17;;;;;;;;;;4953295;28;20597;-85
2021/01/04 10:52:40;;;;;;;33.83;16.83;;;;;;;;;;4971133;28;20593;-84
2021/01/04 10:56:00;;;;;;;35.63;18.53;;;;;;;;;;4960014;28;21202;-84
2021/01/04 10:59:22;;;;;;;34.97;17.30;;;;;;;;;;4999864;28;20588;-84
2021/01/04 11:02:36;;;;;;;38.63;18.13;;;;;;;;;;4969686;28;20605;-84
2021/01/04 11:05:43;;;;;;;33.83;17.37;;;;;;;;;;5033862;23;20689;-84
2021/01/04 11:08:47;;;;;;;32.33;16.70;;;;;;;;;;4990690;28;20592;-85
2021/01/04 11:12:06;;;;;;;41.50;17.07;;;;;;;;;;5002578;28;20589;-84
2021/01/04 11:15:20;;;;;;;33.00;16.90;;;;;;;;;;4986874;28;21304;-84
2021/01/04 11:18:24;;;;;;;33.47;16.57;;;;;;;;;;4964521;28;20613;-85
2021/01/04 11:21:41;;;;;;;31.73;16.27;;;;;;;;;;4964113;28;20621;-84
2021/01/04 11:24:45;;;;;;;31.27;16.37;;;;;;;;;;4996983;28;20736;-84
2021/01/04 11:27:49;;;;;;;36.60;16.30;;;;;;;;;;4963880;28;20608;-84
2021/01/04 11:30:54;;;;;;;29.53;16.27;;;;;;;;;;4976092;28;20541;-84
2021/01/04 11:33:58;;;;;;;26.30;14.13;;;;;;;;;;4975325;28;20593;-85
2021/01/04 11:37:03;;;;;;;25.57;13.53;;;;;;;;;;4986635;28;20593;-84
2021/01/04 11:40:09;;;;;;;27.93;14.30;;;;;;;;;;4965036;28;21272;-85
2021/01/04 11:43:14;;;;;;;27.70;14.60;;;;;;;;;;4987115;28;20546;-86
2021/01/04 11:46:19;;;;;;;28.87;14.93;;;;;;;;;;4986653;28;20657;-84
2021/01/04 11:49:23;;;;;;;30.00;15.97;;;;;;;;;;4985944;28;20620;-84
2021/01/04 11:52:27;;;;;;;30.30;15.17;;;;;;;;;;4986179;28;20612;-84
2021/01/04 11:55:32;;;;;;;27.77;14.73;;;;;;;;;;4964191;28;20645;-84
2021/01/04 11:58:39;;;;;;;28.77;14.73;;;;;;;;;;4985661;28;20542;-86
2021/01/04 12:01:44;;;;;;;31.43;15.13;;;;;;;;;;4974797;28;20598;-86
2021/01/04 12:04:48;;;;;;;33.17;15.87;;;;;;;;;;4985814;28;20657;-86
2021/01/04 12:07:54;;;;;;;29.87;15.70;;;;;;;;;;4963217;28;20878;-86
2021/01/04 12:10:59;;;;;;;32.03;15.73;;;;;;;;;;4972877;28;20585;-86
2021/01/04 12:14:05;;;;;;;25.37;13.47;;;;;;;;;;4997251;28;20549;-87
2021/01/04 12:17:10;;;;;;;21.60;12.70;;;;;;;;;;4985384;28;20605;-86
2021/01/04 12:20:14;;;;;;;29.30;14.30;;;;;;;;;;4962117;28;20631;-86
2021/01/04 12:23:19;;;;;;;30.10;14.17;;;;;;;;;;4963367;28;20557;-84
2021/01/04 12:26:23;;;;;;;27.40;12.70;;;;;;;;;;4974596;28;20648;-84
2021/01/04 12:29:27;;;;;;;22.07;12.13;;;;;;;;;;4986084;28;20625;-84
2021/01/04 12:32:32;;;;;;;24.93;12.03;;;;;;;;;;4973413;28;20973;-85
2021/01/04 12:35:37;;;;;;;24.50;13.40;;;;;;;;;;4962568;28;21242;-85
2021/01/04 12:38:41;;;;;;;22.07;12.40;;;;;;;;;;4974341;28;20565;-84
2021/01/04 12:41:45;;;;;;;26.67;13.90;;;;;;;;;;4985425;28;20604;-84
2021/01/04 12:44:50;;;;;;;30.00;14.60;;;;;;;;;;4985017;28;21257;-85
2021/01/04 12:47:54;;;;;;;31.27;13.57;;;;;;;;;;4973539;28;20596;-84
2021/01/04 12:50:58;;;;;;;23.50;13.07;;;;;;;;;;4985222;28;20576;-85
2021/01/04 12:54:03;;;;;;;24.27;12.67;;;;;;;;;;4963391;28;20597;-84
2021/01/04 12:57:09;;;;;;;23.10;11.30;;;;;;;;;;4985478;28;21189;-84
2021/01/04 13:00:21;;;;;;;18.13;9.43;;;;;;;;;;4963312;28;20552;-86
2021/01/04 13:03:25;;;;;;;20.37;9.63;;;;;;;;;;4958987;28;20591;-86
2021/01/04 13:06:30;;;;;;;18.00;9.43;;;;;;;;;;4961047;28;20673;-85
2021/01/04 13:09:34;;;;;;;15.93;9.07;;;;;;;;;;4944286;28;20674;-87
2021/01/04 13:12:38;;;;;;;16.87;9.17;;;;;;;;;;4957903;28;20623;-87
2021/01/04 13:15:42;;;;;;;19.93;10.70;;;;;;;;;;4965545;28;20654;-88
2021/01/04 13:18:47;;;;;;;20.17;11.03;;;;;;;;;;4934229;29;20563;-89
2021/01/04 13:21:53;;;;;;;16.47;8.70;;;;;;;;;;4933851;29;20957;-88
2021/01/04 13:24:57;;;;;;;18.13;10.07;;;;;;;;;;4983331;28;20641;-88
2021/01/04 13:28:03;;;;;;;20.47;10.20;;;;;;;;;;4973051;28;20581;-87
2021/01/04 13:31:08;;;;;;;18.27;9.00;;;;;;;;;;4972568;28;20609;-87
2021/01/04 13:34:13;;;;;;;14.33;8.07;;;;;;;;;;4972875;28;21179;-85
2021/01/04 13:37:17;;;;;;;17.23;8.87;;;;;;;;;;4937140;28;20548;-87
2021/01/04 13:40:21;;;;;;;18.07;8.97;;;;;;;;;;4960950;28;20582;-85
2021/01/04 13:43:25;;;;;;;16.70;9.67;;;;;;;;;;4976511;28;20590;-87
2021/01/04 13:46:31;;;;;;;21.17;9.50;;;;;;;;;;4968763;28;20665;-85
2021/01/04 13:49:39;;;;;;;17.57;9.33;;;;;;;;;;4997749;28;20597;-87
2021/01/04 13:52:43;;;;;;;13.83;7.83;;;;;;;;;;4965990;28;20661;-86
2021/01/04 13:55:47;;;;;;;17.77;9.37;;;;;;;;;;4977446;28;20653;-86
2021/01/04 13:58:52;;;;;;;18.03;8.73;;;;;;;;;;4966051;28;20550;-86
2021/01/04 14:02:04;;;;;;;15.33;7.70;;;;;;;;;;4976877;28;20621;-86
2021/01/04 14:05:09;;;;;;;16.70;8.23;;;;;;;;;;4965047;28;20668;-87
2021/01/04 14:08:13;;;;;;;14.90;8.07;;;;;;;;;;4966065;28;20593;-87
2021/01/04 14:11:20;;;;;;;15.53;8.13;;;;;;;;;;4976019;28;20609;-87
2021/01/04 14:14:25;;;;;;;13.10;7.83;;;;;;;;;;4977114;28;20668;-86
2021/01/04 14:17:30;;;;;;;13.80;7.93;;;;;;;;;;4987910;28;20590;-86
2021/01/04 14:20:35;;;;;;;13.33;7.57;;;;;;;;;;4987336;28;20545;-87
2021/01/04 14:23:39;;;;;;;14.17;7.80;;;;;;;;;;4977710;28;20597;-88
2021/01/04 14:26:43;;;;;;;16.27;8.50;;;;;;;;;;4987286;28;20593;-87
2021/01/04 14:29:48;;;;;;;16.20;8.60;;;;;;;;;;4999003;28;20601;-87
2021/01/04 14:32:52;;;;;;;17.10;8.40;;;;;;;;;;4965150;28;20629;-87
2021/01/04 14:35:56;;;;;;;18.87;10.73;;;;;;;;;;4959444;29;20622;-86
2021/01/04 14:39:02;;;;;;;19.07;9.10;;;;;;;;;;4952389;29;20557;-88
2021/01/04 14:42:08;;;;;;;15.53;8.97;;;;;;;;;;4965024;28;20597;-87
2021/01/04 14:45:12;;;;;;;14.33;8.13;;;;;;;;;;4991047;28;20629;-87
2021/01/04 14:48:17;;;;;;;15.23;8.27;;;;;;;;;;4989715;28;20562;-87
2021/01/04 14:51:21;;;;;;;17.87;9.47;;;;;;;;;;4989926;28;20593;-86
2021/01/04 14:54:25;;;;;;;14.60;8.60;;;;;;;;;;4984335;28;20554;-86
2021/01/04 14:57:30;;;;;;;15.40;8.50;;;;;;;;;;4994371;28;20597;-85
2021/01/04 15:00:34;;;;;;;24.73;13.13;;;;;;;;;;4982642;28;20592;-86
2021/01/04 15:03:39;;;;;;;17.03;9.40;;;;;;;;;;4971230;28;20550;-88
2021/01/04 15:06:43;;;;;;;17.50;9.10;;;;;;;;;;4970307;28;20995;-87
2021/01/04 15:09:50;;;;;;;15.53;8.67;;;;;;;;;;4993368;28;20557;-86
2021/01/04 15:12:54;;;;;;;15.03;8.43;;;;;;;;;;4970689;28;20586;-88
2021/01/04 15:15:59;;;;;;;24.60;12.60;;;;;;;;;;4982199;28;20653;-88
2021/01/04 15:19:03;;;;;;;38.97;19.73;;;;;;;;;;4982203;28;20538;-87
2021/01/04 15:22:08;;;;;;;22.03;12.20;;;;;;;;;;4982211;28;20597;-86
2021/01/04 15:25:13;;;;;;;17.03;9.37;;;;;;;;;;4960004;28;20624;-86
2021/01/04 15:28:17;;;;;;;16.37;10.37;;;;;;;;;;4993261;28;20542;-86
2021/01/04 15:31:23;;;;;;;16.97;8.70;;;;;;;;;;4982031;28;20546;-87
2021/01/04 15:34:27;;;;;;;16.50;8.63;;;;;;;;;;4981469;28;21155;-87
2021/01/04 15:37:31;;;;;;;14.87;8.57;;;;;;;;;;4960675;28;20538;-88
2021/01/04 15:40:36;;;;;;;15.53;8.77;;;;;;;;;;4985826;28;20593;-84
2021/01/04 15:43:44;;;;;;;15.47;9.13;;;;;;;;;;4983512;28;20597;-87
2021/01/04 15:46:50;;;;;;;15.77;11.43;;;;;;;;;;4964023;28;20733;-85
2021/01/04 15:49:54;;;;;;;15.82;11.15;;;;;;;;;;4963866;28;20728;-88
2021/01/04 15:52:58;;;;;;;15.50;10.40;;;;;;;;;;4976866;28;20205;-87
2021/01/04 15:56:03;;;;;;;15.13;9.67;;;;;;;;;;4975867;28;21009;-88
2021/01/04 15:59:07;;;;;;;18.87;12.27;;;;;;;;;;4967702;28;20597;-84
2021/01/04 16:02:12;;;;;;;16.70;10.10;;;;;;;;;;4984973;28;20589;-84
2021/01/04 16:05:16;;;;;;;13.50;8.80;;;;;;;;;;4974106;28;20652;-83
2021/01/04 16:08:20;;;;;;;13.67;7.57;;;;;;;;;;4974555;28;20648;-85
2021/01/04 16:11:25;;;;;;;14.50;8.73;;;;;;;;;;4984964;28;20628;-85
2021/01/04 16:14:30;;;;;;;19.73;13.33;;;;;;;;;;4974613;28;20593;-85
2021/01/04 16:17:34;;;;;;;20.23;12.30;;;;;;;;;;4963421;28;20593;-85
2021/01/04 16:20:38;;;;;;;20.47;12.70;;;;;;;;;;4953070;28;20586;-85
2021/01/04 16:23:43;;;;;;;14.60;8.93;;;;;;;;;;4977030;28;20563;-85
2021/01/04 16:26:48;;;;;;;18.97;12.60;;;;;;;;;;4966263;28;20590;-85
2021/01/04 16:29:52;;;;;;;14.13;8.53;;;;;;;;;;4966280;28;20621;-85
2021/01/04 16:32:57;;;;;;;16.60;9.77;;;;;;;;;;4974309;28;20597;-86
2021/01/04 16:36:01;;;;;;;15.77;10.13;;;;;;;;;;4985312;28;20617;-85
2021/01/04 16:39:06;;;;;;;15.80;10.53;;;;;;;;;;4973696;28;21203;-85
2021/01/04 16:42:13;;;;;;;16.57;9.77;;;;;;;;;;4979783;28;21130;-85
2021/01/04 16:45:18;;;;;;;19.50;8.97;;;;;;;;;;5000027;28;20644;-86
2021/01/04 16:48:22;;;;;;;14.47;8.40;;;;;;;;;;4962617;29;20599;-86
2021/01/04 16:51:26;;;;;;;15.83;9.37;;;;;;;;;;4962758;28;20899;-87
2021/01/04 16:54:31;;;;;;;13.60;8.30;;;;;;;;;;4994671;28;20585;-86
2021/01/04 16:57:35;;;;;;;16.30;9.33;;;;;;;;;;4985077;28;20526;-84
2021/01/04 17:00:39;;;;;;;13.73;7.83;;;;;;;;;;4984244;28;20593;-84
2021/01/04 17:03:47;;;;;;;13.90;7.90;;;;;;;;;;4982133;28;20938;-85
2021/01/04 17:06:53;;;;;;;14.70;8.70;;;;;;;;;;4997026;28;20657;-84
2021/01/04 17:09:57;;;;;;;15.20;8.10;;;;;;;;;;4986767;28;20597;-84
2021/01/04 17:13:01;;;;;;;14.50;8.13;;;;;;;;;;4986609;28;20545;-84
2021/01/04 17:16:06;;;;;;;14.10;8.67;;;;;;;;;;4997111;28;20649;-84
2021/01/04 17:19:11;;;;;;;15.80;9.17;;;;;;;;;;4966938;28;20594;-85
2021/01/04 17:22:15;;;;;;;16.47;8.83;;;;;;;;;;4970820;28;20590;-86
2021/01/04 17:25:19;;;;;;;18.00;8.67;;;;;;;;;;4957113;28;20622;-86
2021/01/04 17:28:23;;;;;;;16.70;10.20;;;;;;;;;;4968009;28;20598;-86
2021/01/04 17:31:28;;;;;;;13.23;8.73;;;;;;;;;;4975353;28;20593;-84
2021/01/04 17:34:32;;;;;;;16.27;9.27;;;;;;;;;;4975415;28;20601;-85
2021/01/04 17:37:37;;;;;;;14.67;9.40;;;;;;;;;;4975645;28;20542;-85
2021/01/04 17:40:41;;;;;;;17.47;10.10;;;;;;;;;;4963463;28;20546;-83
2021/01/04 17:43:47;;;;;;;16.90;9.70;;;;;;;;;;4986157;28;20601;-86
2021/01/04 17:46:51;;;;;;;16.17;9.60;;;;;;;;;;4989183;28;20550;-85
2021/01/04 17:49:56;;;;;;;16.50;9.40;;;;;;;;;;4965711;28;20593;-84
2021/01/04 17:53:00;;;;;;;13.73;8.37;;;;;;;;;;4985635;28;20586;-84
2021/01/04 17:56:06;;;;;;;12.50;8.60;;;;;;;;;;4985370;28;20624;-84
2021/01/04 17:59:10;;;;;;;15.47;9.40;;;;;;;;;;4963232;28;20541;-83
2021/01/04 18:02:14;;;;;;;15.27;8.90;;;;;;;;;;4974235;28;20537;-84
2021/01/04 18:05:18;;;;;;;17.17;10.47;;;;;;;;;;4945827;29;20646;-84
2021/01/04 18:08:24;;;;;;;16.33;10.03;;;;;;;;;;4960247;28;20973;-85
2021/01/04 18:11:30;;;;;;;15.10;9.27;;;;;;;;;;4972843;28;20581;-84
2021/01/04 18:14:38;;;;;;;13.70;8.60;;;;;;;;;;4938404;28;20652;-84
2021/01/04 18:17:43;;;;;;;14.93;8.70;;;;;;;;;;4974012;28;20561;-85
2021/01/04 18:20:47;;;;;;;16.80;8.63;;;;;;;;;;4995952;28;20546;-83
2021/01/04 18:23:53;;;;;;;13.83;8.63;;;;;;;;;;4943275;28;20554;-85
2021/01/04 18:26:57;;;;;;;13.63;9.10;;;;;;;;;;4997394;28;20929;-84
2021/01/04 18:30:05;;;;;;;15.63;8.87;;;;;;;;;;4974252;28;20546;-84
2021/01/04 18:33:09;;;;;;;14.37;8.97;;;;;;;;;;4985881;28;20933;-85
2021/01/04 18:36:16;;;;;;;16.30;9.57;;;;;;;;;;4972955;28;20644;-84
2021/01/04 18:39:22;;;;;;;20.20;10.30;;;;;;;;;;4972347;28;20914;-84